This is the latest recevied weather packets stored in our database for station/object K9JVA. If no packets are shown the sender has not sent any weather packets the latest 10 day(s).
| Time | Temp. | Humidity | Pressure | Rain* | Wind** | Luminosity | Snow |
|---|---|---|---|---|---|---|---|
| 1777423635 | 18.89° C | 72% | 1013.3 hPa | 0 mm | - | - | - |
| 1777421236 | 20.56° C | 68% | 1012.9 hPa | 0 mm | - | - | - |
| 1777420937 | 21.11° C | 67% | 1012.9 hPa | 0 mm | - | - | - |
| 1777420358 | 21.11° C | 66% | 1013.2 hPa | 0 mm | - | - | - |
| 1777418562 | 22.22° C | 62% | 1013 hPa | 0 mm | - | - | - |
| 1777415896 | 23.33° C | 62% | 1011.4 hPa | 0 mm | - | - | - |
| 1777415597 | 23.33° C | 62% | 1011.4 hPa | 0 mm | - | - | - |
| 1777415298 | 23.33° C | 62% | 1012 hPa | 0 mm | - | - | - |
| 1777413737 | 23.33° C | 61% | 1012.8 hPa | 0 mm | - | - | - |
| 1777410677 | 26.11° C | 57% | 1012.9 hPa | 0 mm | - | - | - |
| 1777409479 | 26.11° C | 59% | 1013.3 hPa | 0 mm | - | - | - |
| 1777409179 | 25.56° C | 59% | 1013.7 hPa | 0 mm | - | - | - |
| 1777406660 | 25.56° C | 63% | 1013.8 hPa | 0 mm | - | - | - |
| 1777405460 | 26.11° C | 59% | 1013.8 hPa | 0 mm | - | - | - |
| 1777405101 | 25.56° C | 60% | 1013.8 hPa | 0 mm | - | - | - |
| 1777403823 | 25.56° C | 64% | 1013.8 hPa | 0 mm | - | - | - |
| 1777402342 | 23.89° C | 68% | 1013.9 hPa | 0 mm | - | - | - |
| 1777401021 | 25° C | 64% | 1014.1 hPa | 0 mm | - | - | - |
| 1777400121 | 23.33° C | 67% | 1014.3 hPa | 0 mm | - | - | - |
| 1777399521 | 23.33° C | 69% | 1014.5 hPa | 0 mm | - | - | - |
| 1777398017 | 23.33° C | 69% | 1014.5 hPa | 0 mm | - | - | - |
| 1777397657 | 23.33° C | 71% | 1014.6 hPa | 0 mm | - | - | - |
| 1777396698 | 22.22° C | 74% | 1014.8 hPa | 0 mm | - | - | - |
| 1777394679 | 21.11° C | 78% | 1015.1 hPa | 0 mm | - | - | - |
| 1777394240 | 21.11° C | 79% | 1015.1 hPa | 0 mm | - | - | - |
* Rain since midnight (hover to see other rain measurements)
** Current wind speed in m/s (hover to see current wind gust speed)